Price, UT (84501)

1:05 AM MDT on July 24, 2016 (GMT -0600)
Castle Heights | | Change Station

Elev 5843 ft 39.23 °N, 111.02 °W | Updated 8 minutes ago

Clear
Clear
74.1 °F
Feels Like 76 °F
N
0.0
Wind Variable Wind from WSW
Gusts 2.0 mph

Today
High -- | Low -- °F
--% Chance of Precip.
Yesterday
High -- | Low -- °F
Precip. -- in
Pressure 29.81 in
Visibility 10.0 miles
Clouds Clear
Heat Index 76 °F
Dew Point 38 °F
Humidity 27%
Rainfall 0.00 in
Snow Depth Not available.
6:17 AM 8:42 PM
Waning Gibbous, 79% visible
METAR KPUC 240653Z AUTO 36008KT 10SM CLR 21/M04 A3013 RMK AO2 SLP094 T02111039 403500150 $
Pressure 29.81 in
Visibility 10.0 miles
Clouds Clear
Heat Index 76 °F
Dew Point 38 °F
Humidity 27%
Rainfall 0.00 in
Snow Depth Not available.
6:17 AM 8:42 PM
Waning Gibbous, 79% visible
METAR KPUC 240653Z AUTO 36008KT 10SM CLR 21/M04 A3013 RMK AO2 SLP094 T02111039 403500150 $

10-Day Weather Forecast

Almanac

Astronomy

Jul. 24, 2016 Rise Set
Actual Time
Civil Twilight
Nautical Twilight
Astronomical Twilight
Moon
Length of Visible Light
Length of Day
Tomorrow will be .
, % of the Moon is Illuminated

Today's Extremes

State Highs State Lows

Community

WunderPhotos

Upload Photos

1,927,037 photos uploaded!

WunderBlog® & News

Nearby

Air Quality

  Air Quality AQ Index Pollutant
Not available.

Snow Depth

Station Depth Elevation

Earthquake Activity

City Distance Mag. Time & Date
Minimum magnitude displayed is 2.5.

Coastal Water Temperatures

Place Temperature

Stations

Nearby Weather Stations

Station Location Temp. Windchill Dew Point Humidity Wind Precip. Elev Updated Type
                   

Watches & Warnings

There are currently no watches in effect.